Time;durP1;ratioP1;P1;durP2;ratioP2;P2;SDS_P1;SDS_P2;PMS_P1;PMS_P2;Temp;Humidity;BMP_temperature;BMP_pressure;BME280_temperature;BME280_humidity;BME280_pressure;Samples;Min_cycle;Max_cycle;Signal;HPM_P1;HPM_P2
2023/01/21 00:00:16;;;;;;;8.17;2.80;;;;;;;;;;5014283;28;20578;-84
2023/01/21 00:02:41;;;;;;;3.90;2.58;;;;;;;;;;5033044;28;20037;-84
2023/01/21 00:05:07;;;;;;;3.78;2.30;;;;;;;;;;5015183;28;20068;-84
2023/01/21 00:07:32;;;;;;;3.75;2.70;;;;;;;;;;5023307;28;20491;-84
2023/01/21 00:09:57;;;;;;;4.10;2.88;;;;;;;;;;5016690;28;20132;-84
2023/01/21 00:12:23;;;;;;;3.55;2.58;;;;;;;;;;5014957;28;20614;-84
2023/01/21 00:14:48;;;;;;;3.50;2.47;;;;;;;;;;5017426;28;20061;-84
2023/01/21 00:17:13;;;;;;;4.07;2.63;;;;;;;;;;5015141;28;20034;-84
2023/01/21 00:19:39;;;;;;;4.65;3.10;;;;;;;;;;5016176;28;20665;-84
2023/01/21 00:22:04;;;;;;;5.28;2.92;;;;;;;;;;5015337;28;20048;-84
2023/01/21 00:24:29;;;;;;;5.30;2.97;;;;;;;;;;5015034;28;20042;-84
2023/01/21 00:26:55;;;;;;;5.03;3.28;;;;;;;;;;5015873;28;20049;-83
2023/01/21 00:29:20;;;;;;;4.03;2.58;;;;;;;;;;5029921;28;20088;-84
2023/01/21 00:31:46;;;;;;;3.42;2.40;;;;;;;;;;5016489;28;20049;-84
2023/01/21 00:34:11;;;;;;;4.32;2.60;;;;;;;;;;5032719;28;20057;-84
2023/01/21 00:36:37;;;;;;;4.40;2.72;;;;;;;;;;5017157;28;20088;-84
2023/01/21 00:39:02;;;;;;;4.13;2.85;;;;;;;;;;5008363;28;20029;-84
2023/01/21 00:41:28;;;;;;;4.20;2.60;;;;;;;;;;5017114;28;20075;-83
2023/01/21 00:43:53;;;;;;;4.05;2.72;;;;;;;;;;5010169;28;20041;-83
2023/01/21 00:46:19;;;;;;;4.10;2.70;;;;;;;;;;5013712;28;20059;-82
2023/01/21 00:48:45;;;;;;;3.58;2.53;;;;;;;;;;5007208;28;20404;-83
2023/01/21 00:51:11;;;;;;;3.92;2.50;;;;;;;;;;5010598;28;20041;-83
2023/01/21 00:53:37;;;;;;;3.97;2.78;;;;;;;;;;5007658;28;20034;-82
2023/01/21 00:56:06;;;;;;;5.03;3.88;;;;;;;;;;5025968;28;20038;-83
2023/01/21 00:58:32;;;;;;;6.68;4.57;;;;;;;;;;5006482;28;20034;-82
2023/01/21 01:01:08;;;;;;;5.07;3.58;;;;;;;;;;5012333;28;20041;-82
2023/01/21 01:03:34;;;;;;;6.68;4.32;;;;;;;;;;4993586;28;20552;-82
2023/01/21 01:06:07;;;;;;;6.95;4.90;;;;;;;;;;5011165;28;20052;-83
2023/01/21 01:08:32;;;;;;;7.65;5.65;;;;;;;;;;5031587;28;20047;-82
2023/01/21 01:10:58;;;;;;;9.85;6.00;;;;;;;;;;5012253;28;20133;-83
2023/01/21 01:13:23;;;;;;;8.52;5.78;;;;;;;;;;4999684;28;20121;-83
2023/01/21 01:15:51;;;;;;;8.47;6.13;;;;;;;;;;5012110;28;20038;-82
2023/01/21 01:18:16;;;;;;;7.68;6.10;;;;;;;;;;5025066;28;20033;-82
2023/01/21 01:20:42;;;;;;;7.78;5.85;;;;;;;;;;5013515;28;20044;-82
2023/01/21 01:23:07;;;;;;;8.55;6.45;;;;;;;;;;5009314;28;20041;-82
2023/01/21 01:25:33;;;;;;;7.97;5.87;;;;;;;;;;5024469;28;20041;-82
2023/01/21 01:27:58;;;;;;;9.73;6.85;;;;;;;;;;5026770;28;20288;-83
2023/01/21 01:30:24;;;;;;;9.15;6.25;;;;;;;;;;5025586;28;20514;-83
2023/01/21 01:32:49;;;;;;;9.65;6.50;;;;;;;;;;5024393;28;20435;-83
2023/01/21 01:35:14;;;;;;;10.53;6.70;;;;;;;;;;5015469;28;20037;-83
2023/01/21 01:37:39;;;;;;;9.30;6.57;;;;;;;;;;5030267;28;20063;-83
2023/01/21 01:40:05;;;;;;;10.63;7.60;;;;;;;;;;5016086;28;20276;-83
2023/01/21 01:42:30;;;;;;;9.25;6.50;;;;;;;;;;5015389;28;20034;-82
2023/01/21 01:44:57;;;;;;;12.17;6.63;;;;;;;;;;5026489;28;20033;-83
2023/01/21 01:47:26;;;;;;;11.77;8.00;;;;;;;;;;5034896;28;20051;-83
2023/01/21 01:49:52;;;;;;;10.25;7.22;;;;;;;;;;5025142;28;20061;-83
2023/01/21 01:52:17;;;;;;;10.88;7.18;;;;;;;;;;5007567;28;20543;-83
2023/01/21 01:54:45;;;;;;;11.32;8.05;;;;;;;;;;5027653;28;20045;-83
2023/01/21 01:57:11;;;;;;;10.40;7.78;;;;;;;;;;5034943;28;20029;-83
2023/01/21 01:59:37;;;;;;;11.35;7.93;;;;;;;;;;5017173;28;20057;-83
2023/01/21 02:02:05;;;;;;;13.35;8.75;;;;;;;;;;5008154;28;20679;-83
2023/01/21 02:04:33;;;;;;;12.45;8.35;;;;;;;;;;4999315;28;20519;-84
2023/01/21 02:06:58;;;;;;;11.35;8.20;;;;;;;;;;5031016;28;20053;-84
2023/01/21 02:09:28;;;;;;;14.35;9.65;;;;;;;;;;5011262;28;20669;-83
2023/01/21 02:11:53;;;;;;;12.45;8.90;;;;;;;;;;5011507;28;20108;-83
2023/01/21 02:14:19;;;;;;;16.65;10.55;;;;;;;;;;5029405;28;20033;-84
2023/01/21 02:16:45;;;;;;;13.43;9.43;;;;;;;;;;5016347;28;20161;-84
2023/01/21 02:19:29;;;;;;;15.20;10.07;;;;;;;;;;5012907;28;20068;-84
2023/01/21 02:21:57;;;;;;;14.38;9.95;;;;;;;;;;5013048;28;20037;-84
2023/01/21 02:24:42;;;;;;;14.80;10.07;;;;;;;;;;5031393;28;20025;-84
2023/01/21 02:27:17;;;;;;;14.63;10.55;;;;;;;;;;4967730;28;20390;-84
2023/01/21 02:29:51;;;;;;;16.30;11.27;;;;;;;;;;5014849;28;20083;-84
2023/01/21 02:32:31;;;;;;;18.38;11.25;;;;;;;;;;5013293;28;20033;-84
2023/01/21 02:35:08;;;;;;;17.65;11.52;;;;;;;;;;5022660;28;20026;-85
2023/01/21 02:37:37;;;;;;;20.02;12.60;;;;;;;;;;5016076;28;20041;-84
2023/01/21 02:40:15;;;;;;;19.48;12.75;;;;;;;;;;5006390;28;20095;-84
2023/01/21 02:42:49;;;;;;;17.85;12.20;;;;;;;;;;5013992;28;20037;-84
2023/01/21 02:45:21;;;;;;;19.35;13.02;;;;;;;;;;5020560;28;20603;-84
2023/01/21 02:47:55;;;;;;;19.20;12.88;;;;;;;;;;5014478;28;20041;-84
2023/01/21 02:50:29;;;;;;;20.02;13.43;;;;;;;;;;5030852;28;20026;-84
2023/01/21 02:52:55;;;;;;;20.55;13.75;;;;;;;;;;5013805;28;20454;-84
2023/01/21 02:55:22;;;;;;;21.27;14.50;;;;;;;;;;5008385;28;20033;-85
2023/01/21 02:57:49;;;;;;;25.90;14.43;;;;;;;;;;5012211;28;20057;-84
2023/01/21 03:00:21;;;;;;;21.10;13.80;;;;;;;;;;5009732;28;20043;-84
2023/01/21 03:03:05;;;;;;;20.50;13.60;;;;;;;;;;5015582;28;20033;-85
2023/01/21 03:05:30;;;;;;;23.20;14.40;;;;;;;;;;5024970;28;20115;-84
2023/01/21 03:08:00;;;;;;;25.50;15.87;;;;;;;;;;5025981;28;20037;-83
2023/01/21 03:10:28;;;;;;;23.20;14.63;;;;;;;;;;5030113;28;20034;-84
2023/01/21 03:12:53;;;;;;;24.05;14.80;;;;;;;;;;5014773;28;20067;-84
2023/01/21 03:18:05;;;;;;;24.92;15.35;;;;;;;;;;5035671;28;20086;-84
2023/01/21 03:20:34;;;;;;;26.10;15.27;;;;;;;;;;5009369;28;20058;-85
2023/01/21 03:23:01;;;;;;;22.65;15.02;;;;;;;;;;5013683;28;20034;-85
2023/01/21 03:25:28;;;;;;;24.63;15.23;;;;;;;;;;5029081;28;20029;-83
2023/01/21 03:27:53;;;;;;;24.42;15.55;;;;;;;;;;5015402;28;20105;-83
2023/01/21 03:30:20;;;;;;;28.42;15.52;;;;;;;;;;5016214;28;20062;-84
2023/01/21 03:32:47;;;;;;;25.17;15.70;;;;;;;;;;5023809;28;20125;-84
2023/01/21 03:35:15;;;;;;;27.48;15.82;;;;;;;;;;5025463;28;20400;-83
2023/01/21 03:37:42;;;;;;;26.05;16.52;;;;;;;;;;5026847;28;20141;-83
2023/01/21 03:40:14;;;;;;;27.95;16.48;;;;;;;;;;5027153;28;20045;-83
2023/01/21 03:42:41;;;;;;;26.42;16.30;;;;;;;;;;5008036;28;20641;-84
2023/01/21 03:45:06;;;;;;;26.35;16.17;;;;;;;;;;5025129;28;20029;-84
2023/01/21 03:47:36;;;;;;;27.20;16.92;;;;;;;;;;5025939;28;20663;-83
2023/01/21 03:50:16;;;;;;;27.00;16.33;;;;;;;;;;5007302;28;20132;-84
2023/01/21 03:52:42;;;;;;;25.48;15.95;;;;;;;;;;5010128;28;20108;-84
2023/01/21 03:55:08;;;;;;;27.88;16.02;;;;;;;;;;5009030;28;20086;-84
2023/01/21 03:57:33;;;;;;;28.83;17.33;;;;;;;;;;5036222;28;20037;-83
2023/01/21 03:59:58;;;;;;;28.50;16.67;;;;;;;;;;5008347;28;20495;-83
2023/01/21 04:02:23;;;;;;;30.33;17.85;;;;;;;;;;5016130;28;20120;-84
2023/01/21 04:04:50;;;;;;;29.30;16.73;;;;;;;;;;5034695;28;20083;-83
2023/01/21 04:07:15;;;;;;;27.42;17.17;;;;;;;;;;5033549;28;20900;-84
2023/01/21 04:09:40;;;;;;;27.70;16.77;;;;;;;;;;5034013;28;20064;-84
2023/01/21 04:12:06;;;;;;;29.15;16.58;;;;;;;;;;5034293;28;20300;-83
2023/01/21 04:14:31;;;;;;;28.80;16.20;;;;;;;;;;5039274;28;20068;-84
2023/01/21 04:16:56;;;;;;;27.77;17.08;;;;;;;;;;5035490;28;20033;-84
2023/01/21 04:19:22;;;;;;;26.42;16.25;;;;;;;;;;5033890;28;20026;-85
2023/01/21 04:21:47;;;;;;;29.45;16.50;;;;;;;;;;5017569;28;20117;-85
2023/01/21 04:24:12;;;;;;;27.70;16.13;;;;;;;;;;5025688;28;20038;-85
2023/01/21 04:26:37;;;;;;;25.70;16.60;;;;;;;;;;5030668;28;20057;-84
2023/01/21 04:29:02;;;;;;;25.57;16.27;;;;;;;;;;5016148;28;20706;-84
2023/01/21 04:31:27;;;;;;;30.35;16.95;;;;;;;;;;5016017;28;20052;-83
2023/01/21 04:33:53;;;;;;;25.67;16.40;;;;;;;;;;5016355;28;20029;-83
2023/01/21 04:36:18;;;;;;;26.33;16.17;;;;;;;;;;5033891;28;20061;-85
2023/01/21 04:38:43;;;;;;;28.07;17.23;;;;;;;22.39;100.00;54026.91;5014478;28;20915;-84
2023/01/21 04:41:08;;;;;;;28.00;16.73;;;;;;;;;;5015032;28;20315;-84
2023/01/21 04:43:34;;;;;;;25.42;15.65;;;;;;;;;;5008112;28;20064;-84
2023/01/21 04:45:59;;;;;;;23.40;14.00;;;;;;;;;;5010290;28;20041;-84
2023/01/21 04:48:24;;;;;;;20.80;13.10;;;;;;;;;;5007193;28;20296;-84
2023/01/21 04:50:49;;;;;;;28.73;15.00;;;;;;;;;;5016102;28;20037;-84
2023/01/21 04:53:14;;;;;;;23.17;13.90;;;;;;;;;;5008415;28;20743;-85
2023/01/21 04:55:40;;;;;;;23.03;13.53;;;;;;;22.39;100.00;159895.09;5008491;28;20102;-85
2023/01/21 04:58:05;;;;;;;22.55;13.57;;;;;;;;;;5012065;28;20515;-85
2023/01/21 05:00:30;;;;;;;21.43;13.70;;;;;;;;;;5007047;28;20041;-85
2023/01/21 05:02:55;;;;;;;24.27;14.07;;;;;;;;;;5005711;28;20288;-85
2023/01/21 05:05:21;;;;;;;22.77;13.20;;;;;;;;;;5026447;28;20037;-85
2023/01/21 05:07:46;;;;;;;22.77;13.43;;;;;;;;;;5010148;28;20563;-85
2023/01/21 05:10:14;;;;;;;22.83;13.57;;;;;;;;;;5030102;28;20033;-85
2023/01/21 05:12:40;;;;;;;24.17;14.38;;;;;;;;;;5013169;28;20288;-85
2023/01/21 05:15:05;;;;;;;23.33;13.97;;;;;;;;;;5013483;28;20446;-85
2023/01/21 05:17:31;;;;;;;21.48;13.10;;;;;;;;;;5020384;28;20034;-85
2023/01/21 05:19:56;;;;;;;21.07;12.53;;;;;;;;;;5011550;28;20045;-85
2023/01/21 05:22:21;;;;;;;23.60;12.93;;;;;;;;;;5010751;28;20049;-85
2023/01/21 05:24:46;;;;;;;20.70;11.07;;;;;;;;;;5031543;28;20091;-85
2023/01/21 05:27:11;;;;;;;18.43;10.60;;;;;;;;;;5011883;28;20363;-85
2023/01/21 05:29:37;;;;;;;19.92;11.63;;;;;;;22.38;100.00;159929.84;5013638;28;20484;-85
2023/01/21 05:32:02;;;;;;;20.50;11.85;;;;;;;;;;5004827;28;20036;-85
2023/01/21 05:34:27;;;;;;;19.15;10.48;;;;;;;;;;5023006;28;20044;-85
2023/01/21 05:36:52;;;;;;;18.63;10.83;;;;;;;;;;5015230;28;20041;-85
2023/01/21 05:39:17;;;;;;;15.73;9.57;;;;;;;;;;5017945;28;20034;-85
2023/01/21 05:41:43;;;;;;;14.53;8.73;;;;;;;;;;5020280;28;20643;-85
2023/01/21 05:44:08;;;;;;;15.03;9.23;;;;;;;;;;5012595;28;20273;-85
2023/01/21 05:46:33;;;;;;;15.32;9.02;;;;;;;;;;5008310;28;20375;-85
2023/01/21 05:48:59;;;;;;;17.47;10.23;;;;;;;;;;5032218;28;20042;-86
2023/01/21 05:51:24;;;;;;;15.65;9.00;;;;;;;;;;5014670;28;20277;-85
2023/01/21 05:53:49;;;;;;;20.58;10.73;;;;;;;;;;5032776;28;20068;-85
2023/01/21 05:56:14;;;;;;;17.92;10.05;;;;;;;;;;5012945;28;20104;-86
2023/01/21 05:58:39;;;;;;;18.70;10.37;;;;;;;;;;5014386;28;20045;-85
2023/01/21 06:01:05;;;;;;;16.13;9.93;;;;;;;;;;5013787;28;20367;-85
2023/01/21 06:03:30;;;;;;;17.58;10.43;;;;;;;;;;5014178;28;20040;-86
2023/01/21 06:05:55;;;;;;;19.02;11.02;;;;;;;;;;5014372;28;20064;-85
2023/01/21 06:08:22;;;;;;;18.47;10.97;;;;;;;;;;5014244;28;20491;-86
2023/01/21 06:10:47;;;;;;;17.30;9.85;;;;;;;;;;5037621;28;20034;-85
2023/01/21 06:13:13;;;;;;;20.70;12.07;;;;;;;;;;5015058;28;20131;-85
2023/01/21 06:15:39;;;;;;;16.52;10.15;;;;;;;;;;5031993;28;20289;-86
2023/01/21 06:18:04;;;;;;;15.88;9.63;;;;;;;;;;5018709;28;20589;-85
2023/01/21 06:20:30;;;;;;;17.40;9.90;;;;;;;;;;5012711;28;20045;-85
2023/01/21 06:22:56;;;;;;;17.55;10.55;;;;;;;;;;5013707;28;20188;-85
2023/01/21 06:25:21;;;;;;;15.35;9.05;;;;;;;;;;5014940;28;20033;-85
2023/01/21 06:27:46;;;;;;;15.73;10.02;;;;;;;;;;5016365;28;20033;-85
2023/01/21 06:30:12;;;;;;;16.70;9.37;;;;;;;;;;5016581;28;20037;-85
2023/01/21 06:32:37;;;;;;;18.42;11.02;;;;;;;;;;5013949;28;20044;-85
2023/01/21 06:35:03;;;;;;;21.00;11.15;;;;;;;;;;5022048;28;20484;-85
2023/01/21 06:37:28;;;;;;;20.00;10.90;;;;;;;;;;5016891;28;20030;-86
2023/01/21 06:39:53;;;;;;;23.25;11.18;;;;;;;;;;5017041;28;20037;-85
2023/01/21 06:42:19;;;;;;;19.80;11.30;;;;;;;;;;5017519;28;20156;-85
2023/01/21 06:44:44;;;;;;;15.77;9.98;;;;;;;;;;5019970;28;20396;-86
2023/01/21 06:47:09;;;;;;;20.50;11.55;;;;;;;;;;5014763;28;20038;-86
2023/01/21 06:49:34;;;;;;;20.70;11.63;;;;;;;;;;5016913;28;20042;-86
2023/01/21 06:52:00;;;;;;;17.47;9.87;;;;;;;;;;5018360;28;20515;-86
2023/01/21 06:54:25;;;;;;;20.83;11.50;;;;;;;;;;5026442;28;20061;-85
2023/01/21 06:56:51;;;;;;;18.10;10.80;;;;;;;;;;5025045;28;20038;-85
2023/01/21 06:59:16;;;;;;;20.35;11.15;;;;;;;;;;5038249;28;20041;-85
2023/01/21 07:01:41;;;;;;;16.10;9.50;;;;;;;;;;5020399;28;20068;-85
2023/01/21 07:04:06;;;;;;;17.23;9.80;;;;;;;;;;5020161;28;20272;-86
2023/01/21 07:06:31;;;;;;;15.80;9.07;;;;;;;;;;5020164;28;20805;-85
2023/01/21 07:08:57;;;;;;;15.17;8.47;;;;;;;;;;5018179;28;20045;-85
2023/01/21 07:11:23;;;;;;;16.40;8.87;;;;;;;;;;5034343;28;20276;-86
2023/01/21 07:13:48;;;;;;;11.55;7.68;;;;;;;;;;5004002;28;20049;-86
2023/01/21 07:16:13;;;;;;;15.03;8.50;;;;;;;;;;5001336;28;20628;-86
2023/01/21 07:18:38;;;;;;;13.97;8.53;;;;;;;;;;5018892;28;20037;-85
2023/01/21 07:21:03;;;;;;;16.40;9.93;;;;;;;;;;5013740;28;20049;-85
2023/01/21 07:23:29;;;;;;;16.90;10.13;;;;;;;;;;5026586;28;20048;-85
2023/01/21 07:25:54;;;;;;;18.40;11.27;;;;;;;;;;5017139;28;20510;-85
2023/01/21 07:28:19;;;;;;;17.00;9.85;;;;;;;;;;5040065;28;20033;-86
2023/01/21 07:30:44;;;;;;;18.30;10.60;;;;;;;;;;5033989;28;20045;-86
2023/01/21 07:33:10;;;;;;;15.90;9.50;;;;;;;;;;5007175;28;20279;-86
2023/01/21 07:35:35;;;;;;;17.13;9.50;;;;;;;;;;5031354;28;20446;-85
2023/01/21 07:38:00;;;;;;;15.97;9.57;;;;;;;;;;4999746;28;20819;-86
2023/01/21 07:40:26;;;;;;;15.48;9.25;;;;;;;;;;5022273;28;20668;-86
2023/01/21 07:42:51;;;;;;;17.50;10.10;;;;;;;;;;5013613;28;20029;-86
2023/01/21 07:45:17;;;;;;;19.15;11.75;;;;;;;;;;5014367;28;20354;-85
2023/01/21 07:47:42;;;;;;;21.17;12.52;;;;;;;;;;5015302;28;20034;-85
2023/01/21 07:50:08;;;;;;;19.60;11.70;;;;;;;;;;5014148;28;20120;-85
2023/01/21 07:52:33;;;;;;;19.88;12.23;;;;;;;;;;5008403;28;20603;-86
2023/01/21 07:54:58;;;;;;;18.70;11.03;;;;;;;;;;5019078;28;20095;-86
2023/01/21 07:57:23;;;;;;;16.57;10.50;;;;;;;;;;5018568;28;20026;-86
2023/01/21 07:59:48;;;;;;;20.87;12.67;;;;;;;;;;5037337;28;20430;-85
2023/01/21 08:02:13;;;;;;;22.73;13.68;;;;;;;;;;5033655;28;20083;-86
2023/01/21 08:04:39;;;;;;;21.37;12.40;;;;;;;;;;5018245;28;20037;-86
2023/01/21 08:07:08;;;;;;;19.17;11.60;;;;;;;;;;5005981;28;20033;-87
2023/01/21 08:09:33;;;;;;;19.00;11.65;;;;;;;;;;5000459;28;20045;-86
2023/01/21 08:11:58;;;;;;;18.00;10.63;;;;;;;;;;5018553;28;20036;-86
2023/01/21 08:14:23;;;;;;;19.67;12.23;;;;;;;;;;5001627;28;20038;-87
2023/01/21 08:16:48;;;;;;;21.30;12.43;;;;;;;;;;4995880;28;20034;-86
2023/01/21 08:19:13;;;;;;;18.70;10.97;;;;;;;;;;5014659;28;20022;-86
2023/01/21 08:21:39;;;;;;;17.83;10.43;;;;;;;;;;5014230;28;20041;-86
2023/01/21 08:24:04;;;;;;;16.73;10.10;;;;;;;;;;5006417;28;20121;-86
2023/01/21 08:26:29;;;;;;;26.35;14.13;;;;;;;;;;5012460;28;20045;-86
2023/01/21 08:28:55;;;;;;;22.40;12.20;;;;;;;;;;5013204;28;20041;-86
2023/01/21 08:31:20;;;;;;;21.20;11.98;;;;;;;;;;5031021;28;20060;-86
2023/01/21 08:33:45;;;;;;;26.23;13.70;;;;;;;;;;5016026;28;20510;-86
2023/01/21 08:36:10;;;;;;;23.77;12.97;;;;;;;;;;5031671;28;20045;-86
2023/01/21 08:38:36;;;;;;;19.67;11.60;;;;;;;;;;5014958;28;20268;-88
2023/01/21 08:41:01;;;;;;;18.17;10.48;;;;;;;;;;5031905;28;20060;-86
2023/01/21 08:43:28;;;;;;;18.42;10.93;;;;;;;;;;5019858;28;20499;-86
2023/01/21 08:46:00;;;;;;;18.65;11.20;;;;;;;;;;5024884;28;20036;-85
2023/01/21 08:48:25;;;;;;;20.33;12.07;;;;;;;;;;5030680;28;20049;-86
2023/01/21 08:50:50;;;;;;;23.65;14.07;;;;;;;;;;5009384;28;20041;-86
2023/01/21 08:53:16;;;;;;;20.27;12.33;;;;;;;;;;5026652;28;20224;-86
2023/01/21 08:55:41;;;;;;;21.42;12.88;;;;;;;;;;5031807;28;20080;-86
2023/01/21 08:58:06;;;;;;;22.17;13.57;;;;;;;;;;5029075;28;20089;-87
2023/01/21 09:00:31;;;;;;;23.47;13.70;;;;;;;;;;5030873;28;20311;-86
2023/01/21 09:02:57;;;;;;;25.80;15.80;;;;;;;;;;5044873;28;20111;-86
2023/01/21 09:05:22;;;;;;;27.05;14.90;;;;;;;;;;5025518;28;20030;-86
2023/01/21 09:07:47;;;;;;;21.73;13.23;;;;;;;;;;5026014;28;20042;-86
2023/01/21 09:10:59;;;;;;;26.33;15.23;;;;;;;;;;5032166;28;20101;-86
2023/01/21 09:12:58;;;;;;;24.80;14.95;;;;;;;;;;5030875;28;20291;-85
2023/01/21 09:15:23;;;;;;;27.10;16.10;;;;;;;;;;5014026;28;20121;-86
2023/01/21 09:17:48;;;;;;;29.05;17.13;;;;;;;;;;5022572;28;20151;-86
2023/01/21 09:20:14;;;;;;;27.80;16.87;;;;;;;;;;5030281;28;20550;-86
2023/01/21 09:22:39;;;;;;;27.50;16.43;;;;;;;;;;5015067;28;20052;-86
2023/01/21 09:25:09;;;;;;;33.63;18.33;;;;;;;;;;5014074;28;20280;-86
2023/01/21 09:27:34;;;;;;;28.08;17.02;;;;;;;;;;5015122;28;20042;-87
2023/01/21 09:29:59;;;;;;;24.63;15.45;;;;;;;22.46;100.00;71136.78;5008516;28;20116;-86
2023/01/21 09:32:24;;;;;;;28.60;16.70;;;;;;;;;;5014135;28;20045;-87
2023/01/21 09:34:50;;;;;;;25.92;15.68;;;;;;;;;;5011516;28;20041;-87
2023/01/21 09:37:15;;;;;;;28.47;17.00;;;;;;;;;;5026042;28;20033;-86
2023/01/21 09:39:40;;;;;;;27.97;17.60;;;;;;;;;;5012235;28;20376;-86
2023/01/21 09:42:13;;;;;;;28.70;16.77;;;;;;;;;;5019140;28;20042;-86
2023/01/21 09:44:43;;;;;;;28.55;16.65;;;;;;;;;;5006662;28;20280;-86
2023/01/21 09:47:21;;;;;;;29.55;17.27;;;;;;;;;;5032736;28;20041;-86
2023/01/21 09:50:01;;;;;;;27.75;16.65;;;;;;;;;;5017997;28;20111;-86
2023/01/21 09:52:34;;;;;;;32.15;19.10;;;;;;;;;;5037651;28;20038;-85
2023/01/21 09:55:00;;;;;;;29.88;16.60;;;;;;;;;;5040858;28;20065;-86
2023/01/21 09:57:34;;;;;;;35.83;20.40;;;;;;;;;;5029503;28;20052;-86
2023/01/21 10:00:19;;;;;;;34.38;18.95;;;;;;;;;;5038337;28;20039;-87
2023/01/21 10:02:51;;;;;;;31.48;17.95;;;;;;;;;;5046783;28;20042;-87
2023/01/21 10:05:16;;;;;;;30.92;17.45;;;;;;;;;;5015245;28;20038;-87
2023/01/21 10:07:51;;;;;;;30.63;19.10;;;;;;;;;;5034795;28;20522;-87
2023/01/21 10:10:20;;;;;;;29.42;17.13;;;;;;;;;;5006607;28;20133;-86
2023/01/21 10:12:48;;;;;;;31.13;17.70;;;;;;;;;;5020189;28;20049;-86
2023/01/21 10:15:32;;;;;;;34.30;18.83;;;;;;;;;;5011676;28;20056;-88
2023/01/21 10:18:02;;;;;;;30.27;17.17;;;;;;;;;;5050483;28;20671;-88
2023/01/21 10:20:29;;;;;;;35.45;19.35;;;;;;;;;;5016750;28;20301;-86
2023/01/21 10:22:57;;;;;;;36.58;20.67;;;;;;;;;;5016810;28;20396;-85
2023/01/21 10:25:31;;;;;;;31.42;18.27;;;;;;;;;;5010479;28;20041;-86
2023/01/21 10:27:58;;;;;;;34.45;18.95;;;;;;;;;;5034891;28;20041;-86
2023/01/21 10:30:26;;;;;;;34.90;18.60;;;;;;;;;;5017016;28;20042;-86
2023/01/21 10:32:53;;;;;;;32.25;18.27;;;;;;;;;;5034324;28;20042;-87
2023/01/21 10:35:23;;;;;;;31.17;18.08;;;;;;;;;;5018288;28;20403;-87
2023/01/21 10:38:19;;;;;;;38.00;21.75;;;;;;;;;;5017672;28;20030;-86
2023/01/21 10:40:51;;;;;;;35.58;20.83;;;;;;;;;;4930740;28;20192;-87
2023/01/21 10:43:26;;;;;;;34.67;19.42;;;;;;;;;;5018768;28;20111;-87
2023/01/21 10:46:06;;;;;;;35.53;19.02;;;;;;;;;;5014120;28;20072;-86
2023/01/21 10:48:44;;;;;;;32.37;20.03;;;;;;;;;;5029265;28;20503;-88
2023/01/21 10:51:30;;;;;;;36.70;19.65;;;;;;;;;;5016353;28;20033;-85
2023/01/21 10:54:05;;;;;;;30.20;18.08;;;;;;;;;;5015990;28;20041;-85
2023/01/21 10:56:49;;;;;;;32.83;18.60;;;;;;;;;;5014303;28;20039;-85
2023/01/21 10:59:16;;;;;;;28.88;17.67;;;;;;;;;;4995678;28;20252;-87
2023/01/21 11:01:43;;;;;;;31.35;18.55;;;;;;;;;;4995080;28;20065;-84
2023/01/21 11:04:22;;;;;;;29.73;17.83;;;;;;;;;;5028100;28;20053;-85
2023/01/21 11:06:59;;;;;;;25.33;16.02;;;;;;;;;;5014724;28;20114;-85
2023/01/21 11:09:26;;;;;;;29.73;17.38;;;;;;;;;;5032739;28;20033;-85
2023/01/21 11:11:52;;;;;;;28.73;17.67;;;;;;;-145.28;100.00;71340.47;5012768;28;20533;-85
2023/01/21 11:14:17;;;;;;;31.90;17.77;;;;;;;;;;5006266;28;20030;-86
2023/01/21 11:16:45;;;;;;;26.73;16.03;;;;;;;;;;5013494;28;20518;-85
2023/01/21 11:19:36;;;;;;;22.90;13.55;;;;;;;;;;5005361;28;20034;-86
2023/01/21 11:22:03;;;;;;;24.83;14.77;;;;;;;;;;5025088;28;20072;-86
2023/01/21 11:24:29;;;;;;;27.25;15.45;;;;;;;;;;5010719;28;20057;-85
2023/01/21 11:26:55;;;;;;;25.98;14.88;;;;;;;;;;5011376;28;20040;-86
2023/01/21 11:29:22;;;;;;;23.25;13.52;;;;;;;;;;5008565;28;20391;-85
2023/01/21 11:31:49;;;;;;;31.85;16.70;;;;;;;;;;5028613;28;20037;-86
2023/01/21 11:34:16;;;;;;;25.15;14.38;;;;;;;;;;5027113;28;20025;-86
2023/01/21 11:36:57;;;;;;;22.17;13.48;;;;;;;;;;5001558;28;20494;-86
2023/01/21 11:39:25;;;;;;;23.33;14.13;;;;;;;;;;5025498;28;20089;-86
2023/01/21 11:41:55;;;;;;;24.42;14.40;;;;;;;;;;5009203;28;20120;-87
2023/01/21 11:44:21;;;;;;;23.63;13.65;;;;;;;;;;5006545;28;20037;-86
2023/01/21 11:46:46;;;;;;;25.35;13.75;;;;;;;;;;5023705;28;20036;-87
2023/01/21 11:49:21;;;;;;;20.67;12.00;;;;;;;22.38;100.00;120374.84;5010368;28;20076;-87
2023/01/21 11:51:47;;;;;;;19.10;11.68;;;;;;;;;;5011240;28;20387;-86
2023/01/21 11:54:16;;;;;;;19.33;11.70;;;;;;;;;;5008239;28;20042;-86
2023/01/21 11:56:51;;;;;;;23.25;12.93;;;;;;;;;;5001794;28;20514;-86
2023/01/21 11:59:26;;;;;;;19.67;11.93;;;;;;;;;;5019398;28;20475;-86
2023/01/21 12:01:54;;;;;;;19.55;12.30;;;;;;;;;;5010459;28;20179;-87
2023/01/21 12:04:19;;;;;;;22.85;13.15;;;;;;;;;;5012438;28;20163;-86
2023/01/21 12:06:46;;;;;;;20.70;14.83;;;;;;;;;;5004713;28;20411;-86
2023/01/21 12:09:16;;;;;;;21.20;13.27;;;;;;;;;;5021197;28;20145;-86
2023/01/21 12:11:41;;;;;;;21.40;14.43;;;;;;;;;;5011313;28;20045;-87
2023/01/21 12:14:16;;;;;;;24.15;14.07;;;;;;;;;;5009933;28;20033;-86
2023/01/21 12:16:50;;;;;;;21.77;13.25;;;;;;;;;;5010465;28;20117;-86
2023/01/21 12:19:27;;;;;;;22.15;13.68;;;;;;;;;;5006171;28;20499;-86
2023/01/21 12:22:25;;;;;;;21.13;13.13;;;;;;;;;;5008148;28;20491;-85
2023/01/21 12:25:11;;;;;;;23.33;13.57;;;;;;;;;;4943761;28;20038;-86
2023/01/21 12:27:52;;;;;;;21.25;12.68;;;;;;;;;;5008297;28;20043;-86
2023/01/21 12:30:33;;;;;;;18.73;11.80;;;;;;;;;;5010475;28;20040;-86
2023/01/21 12:33:02;;;;;;;20.40;12.02;;;;;;;;;;5009994;28;20244;-85
2023/01/21 12:35:27;;;;;;;23.00;13.18;;;;;;;;;;5010553;28;20498;-86
2023/01/21 12:37:55;;;;;;;19.03;12.17;;;;;;;;;;5004205;28;20034;-85
2023/01/21 12:40:24;;;;;;;23.27;12.77;;;;;;;;;;5003949;28;20296;-88
2023/01/21 12:42:55;;;;;;;18.95;11.63;;;;;;;;;;5009113;28;20069;-87
2023/01/21 12:45:22;;;;;;;18.20;11.57;;;;;;;;;;5005539;28;20037;-85
2023/01/21 12:48:00;;;;;;;19.55;12.82;;;;;;;;;;5031145;28;20026;-85
2023/01/21 12:50:38;;;;;;;21.85;12.68;;;;;;;;;;5009897;28;20068;-85
2023/01/21 12:53:21;;;;;;;20.10;13.27;;;;;;;;;;5006057;28;20121;-86
2023/01/21 12:56:01;;;;;;;22.25;12.52;;;;;;;;;;5010199;28;20037;-86
2023/01/21 12:58:32;;;;;;;19.73;11.45;;;;;;;;;;5005897;28;20116;-86
2023/01/21 13:01:00;;;;;;;20.70;12.35;;;;;;;;;;5012261;28;20045;-86
2023/01/21 13:03:31;;;;;;;19.08;12.07;;;;;;;;;;5015128;28;20095;-87
2023/01/21 13:06:13;;;;;;;19.65;11.75;;;;;;;;;;5006025;28;20065;-86
2023/01/21 13:08:59;;;;;;;18.35;11.40;;;;;;;;;;5011911;28;20038;-86
2023/01/21 13:11:29;;;;;;;19.73;11.25;;;;;;;;;;5012809;28;20672;-88
2023/01/21 13:14:06;;;;;;;23.38;13.23;;;;;;;;;;5047847;28;20038;-87
2023/01/21 13:16:34;;;;;;;21.52;12.18;;;;;;;;;;5019185;28;20121;-87
2023/01/21 13:18:59;;;;;;;18.52;11.55;;;;;;;;;;5038299;28;20040;-86
2023/01/21 13:21:40;;;;;;;18.45;11.45;;;;;;;;;;5015977;28;20057;-87
2023/01/21 13:24:16;;;;;;;20.98;12.07;;;;;;;;;;5030156;28;20057;-87
2023/01/21 13:27:05;;;;;;;17.17;10.15;;;;;;;;;;5011529;28;20041;-86
2023/01/21 13:29:30;;;;;;;16.95;10.45;;;;;;;;;;5030664;28;20044;-86
2023/01/21 13:32:15;;;;;;;18.95;11.20;;;;;;;;;;5019217;28;20037;-86
2023/01/21 13:34:59;;;;;;;18.75;11.15;;;;;;;;;;5015370;28;20129;-87
2023/01/21 13:37:32;;;;;;;17.27;11.23;;;;;;;;;;5028640;28;20046;-85
2023/01/21 13:40:16;;;;;;;23.05;13.48;;;;;;;;;;5013634;28;20045;-86
2023/01/21 13:42:52;;;;;;;23.80;13.90;;;;;;;;;;5009263;28;20124;-86
2023/01/21 13:45:28;;;;;;;20.02;11.57;;;;;;;;;;5026794;28;20060;-84
2023/01/21 13:48:11;;;;;;;19.67;12.07;;;;;;;;;;5033793;28;20034;-85
2023/01/21 13:50:47;;;;;;;18.73;11.18;;;;;;;;;;5033789;28;20041;-84
2023/01/21 13:53:12;;;;;;;;;;;;;;;;;;5033930;28;20044;-85
2023/01/21 13:55:49;;;;;;;18.70;10.93;;;;;;;;;;5015251;28;20011;-86
2023/01/21 13:58:19;;;;;;;17.42;10.73;;;;;;;;;;5014322;28;20039;-86
2023/01/21 14:00:51;;;;;;;18.00;10.70;;;;;;;;;;5015711;28;20467;-86
2023/01/21 14:03:26;;;;;;;19.33;11.15;;;;;;;;;;5013449;28;20033;-86
2023/01/21 14:06:00;;;;;;;15.95;11.60;;;;;;;;;;5030950;28;20399;-85
2023/01/21 14:08:31;;;;;;;15.63;10.27;;;;;;;;;;5034952;28;20041;-85
2023/01/21 14:11:02;;;;;;;18.25;10.25;;;;;;;;;;5021853;28;20026;-86
2023/01/21 14:13:27;;;;;;;15.98;10.80;;;;;;;;;;5005915;28;20406;-86
2023/01/21 14:16:03;;;;;;;16.10;10.03;;;;;;;;;;5009832;28;20041;-85
2023/01/21 14:18:32;;;;;;;16.17;9.63;;;;;;;;;;5026238;28;20038;-85
2023/01/21 14:21:00;;;;;;;16.27;9.20;;;;;;;;;;5013827;28;20029;-85
2023/01/21 14:23:44;;;;;;;18.50;9.95;;;;;;;;;;5015096;28;20037;-85
2023/01/21 14:26:16;;;;;;;14.38;8.38;;;;;;;;;;5000396;28;20041;-85
2023/01/21 14:28:55;;;;;;;16.13;9.95;;;;;;;;;;5034608;28;20048;-85